Bar Harbor, Maine
Current Conditions -  °F | °C
As of 3:35 AM on Monday 24 Nov 2014 (Local Time) from KBHB Reporting Station
Scattered Clouds Scattered Clouds  
Wind Chill: 43°   Ceiling: Unl
Heat Index: 43°   Visibility: 10mi
Dew Point: 43°   Wind: 0mph
Humidity: 100%   Direction: NA
Pressure: 30.09"   Gusts: NA
Location:  44.39°N, 68.2°W
Report Text: KBHB 240835Z AUTO 00000KT 10SM SCT095 06/06 A3009 RMK AO1
Loading
Personal Weather Stations






























Interactive Weather Map New forecast layout! Learn more

10-Day Weather Forecast

Advertisements
Track Severe Weather on mobile